sensor_id;sensor_type;location;lat;lon;timestamp;P1;durP1;ratioP1;P2;durP2;ratioP2
48685;SDS011;34485;51.536;3.816;2023-02-15T00:01:55;165.63;;;32.72;;
48685;SDS011;34485;51.536;3.816;2023-02-15T00:04:21;173.30;;;36.60;;
48685;SDS011;34485;51.536;3.816;2023-02-15T00:06:49;99.32;;;26.27;;
48685;SDS011;34485;51.536;3.816;2023-02-15T00:09:15;129.35;;;34.05;;
48685;SDS011;34485;51.536;3.816;2023-02-15T00:11:41;91.83;;;27.23;;
48685;SDS011;34485;51.536;3.816;2023-02-15T00:14:20;294.75;;;42.83;;
48685;SDS011;34485;51.536;3.816;2023-02-15T00:16:47;349.35;;;48.60;;
48685;SDS011;34485;51.536;3.816;2023-02-15T00:19:14;371.40;;;48.38;;
48685;SDS011;34485;51.536;3.816;2023-02-15T00:21:41;359.52;;;44.03;;
48685;SDS011;34485;51.536;3.816;2023-02-15T00:24:08;292.88;;;43.03;;
48685;SDS011;34485;51.536;3.816;2023-02-15T00:26:35;229.02;;;33.40;;
48685;SDS011;34485;51.536;3.816;2023-02-15T00:29:02;482.90;;;42.40;;
48685;SDS011;34485;51.536;3.816;2023-02-15T00:31:29;628.97;;;60.13;;
48685;SDS011;34485;51.536;3.816;2023-02-15T00:34:01;202.00;;;33.75;;
48685;SDS011;34485;51.536;3.816;2023-02-15T00:36:27;119.85;;;31.42;;
48685;SDS011;34485;51.536;3.816;2023-02-15T00:38:53;68.43;;;28.07;;
48685;SDS011;34485;51.536;3.816;2023-02-15T00:41:19;144.33;;;27.77;;
48685;SDS011;34485;51.536;3.816;2023-02-15T00:43:44;203.27;;;31.27;;
48685;SDS011;34485;51.536;3.816;2023-02-15T00:46:10;165.33;;;31.00;;
48685;SDS011;34485;51.536;3.816;2023-02-15T00:48:35;280.97;;;43.27;;
48685;SDS011;34485;51.536;3.816;2023-02-15T00:51:01;217.43;;;33.50;;
48685;SDS011;34485;51.536;3.816;2023-02-15T00:53:27;163.32;;;27.88;;
48685;SDS011;34485;51.536;3.816;2023-02-15T00:55:53;130.37;;;23.77;;
48685;SDS011;34485;51.536;3.816;2023-02-15T00:58:19;175.18;;;29.30;;
48685;SDS011;34485;51.536;3.816;2023-02-15T01:00:45;180.33;;;28.63;;
48685;SDS011;34485;51.536;3.816;2023-02-15T01:03:12;184.55;;;29.25;;
48685;SDS011;34485;51.536;3.816;2023-02-15T01:05:39;175.40;;;28.20;;
48685;SDS011;34485;51.536;3.816;2023-02-15T01:08:05;190.50;;;35.47;;
48685;SDS011;34485;51.536;3.816;2023-02-15T01:10:30;136.32;;;26.52;;
48685;SDS011;34485;51.536;3.816;2023-02-15T01:12:58;145.73;;;28.75;;
48685;SDS011;34485;51.536;3.816;2023-02-15T01:15:23;159.87;;;25.63;;
48685;SDS011;34485;51.536;3.816;2023-02-15T01:17:49;160.35;;;26.90;;
48685;SDS011;34485;51.536;3.816;2023-02-15T01:20:21;157.25;;;27.65;;
48685;SDS011;34485;51.536;3.816;2023-02-15T01:22:49;189.07;;;32.38;;
48685;SDS011;34485;51.536;3.816;2023-02-15T01:25:16;148.65;;;26.13;;
48685;SDS011;34485;51.536;3.816;2023-02-15T01:27:42;190.73;;;30.95;;
48685;SDS011;34485;51.536;3.816;2023-02-15T01:30:08;131.27;;;32.23;;
48685;SDS011;34485;51.536;3.816;2023-02-15T01:32:34;125.07;;;23.85;;
48685;SDS011;34485;51.536;3.816;2023-02-15T01:35:00;158.43;;;26.95;;
48685;SDS011;34485;51.536;3.816;2023-02-15T01:37:26;135.97;;;28.07;;
48685;SDS011;34485;51.536;3.816;2023-02-15T01:39:51;212.13;;;30.92;;
48685;SDS011;34485;51.536;3.816;2023-02-15T01:42:21;120.32;;;25.33;;
48685;SDS011;34485;51.536;3.816;2023-02-15T01:44:53;129.40;;;32.90;;
48685;SDS011;34485;51.536;3.816;2023-02-15T01:47:32;125.70;;;26.00;;
48685;SDS011;34485;51.536;3.816;2023-02-15T01:50:16;160.73;;;27.35;;
48685;SDS011;34485;51.536;3.816;2023-02-15T01:52:58;129.63;;;23.88;;
48685;SDS011;34485;51.536;3.816;2023-02-15T01:55:32;112.47;;;24.25;;
48685;SDS011;34485;51.536;3.816;2023-02-15T01:58:00;159.38;;;30.58;;
48685;SDS011;34485;51.536;3.816;2023-02-15T02:00:26;150.02;;;32.20;;
48685;SDS011;34485;51.536;3.816;2023-02-15T02:02:53;60.83;;;20.55;;
48685;SDS011;34485;51.536;3.816;2023-02-15T02:05:20;119.15;;;29.65;;
48685;SDS011;34485;51.536;3.816;2023-02-15T02:07:46;53.92;;;25.52;;
48685;SDS011;34485;51.536;3.816;2023-02-15T02:10:16;43.97;;;21.33;;
48685;SDS011;34485;51.536;3.816;2023-02-15T02:12:44;51.25;;;23.33;;
48685;SDS011;34485;51.536;3.816;2023-02-15T02:15:12;39.88;;;23.85;;
48685;SDS011;34485;51.536;3.816;2023-02-15T02:23:31;37.47;;;23.50;;
48685;SDS011;34485;51.536;3.816;2023-02-15T02:29:31;33.50;;;22.27;;
48685;SDS011;34485;51.536;3.816;2023-02-15T02:34:55;33.38;;;21.00;;
48685;SDS011;34485;51.536;3.816;2023-02-15T02:37:48;31.80;;;22.13;;
48685;SDS011;34485;51.536;3.816;2023-02-15T02:40:25;31.27;;;21.63;;
48685;SDS011;34485;51.536;3.816;2023-02-15T02:43:14;28.83;;;20.63;;
48685;SDS011;34485;51.536;3.816;2023-02-15T02:45:54;32.53;;;21.50;;
48685;SDS011;34485;51.536;3.816;2023-02-15T02:48:22;33.05;;;21.20;;
48685;SDS011;34485;51.536;3.816;2023-02-15T02:50:52;36.92;;;23.85;;
48685;SDS011;34485;51.536;3.816;2023-02-15T02:53:18;34.90;;;22.97;;
48685;SDS011;34485;51.536;3.816;2023-02-15T02:55:49;33.60;;;21.60;;
48685;SDS011;34485;51.536;3.816;2023-02-15T02:58:23;30.58;;;20.90;;
48685;SDS011;34485;51.536;3.816;2023-02-15T03:01:06;33.60;;;20.00;;
48685;SDS011;34485;51.536;3.816;2023-02-15T03:03:38;40.88;;;22.05;;
48685;SDS011;34485;51.536;3.816;2023-02-15T03:06:11;42.65;;;24.85;;
48685;SDS011;34485;51.536;3.816;2023-02-15T03:08:43;38.10;;;23.77;;
48685;SDS011;34485;51.536;3.816;2023-02-15T03:11:18;43.60;;;25.27;;
48685;SDS011;34485;51.536;3.816;2023-02-15T03:13:44;53.07;;;24.80;;
48685;SDS011;34485;51.536;3.816;2023-02-15T03:16:12;42.17;;;24.90;;
48685;SDS011;34485;51.536;3.816;2023-02-15T03:18:57;48.22;;;23.40;;
48685;SDS011;34485;51.536;3.816;2023-02-15T03:21:31;60.07;;;25.23;;
48685;SDS011;34485;51.536;3.816;2023-02-15T03:24:11;82.50;;;26.27;;
48685;SDS011;34485;51.536;3.816;2023-02-15T03:26:39;109.20;;;29.48;;
48685;SDS011;34485;51.536;3.816;2023-02-15T03:29:10;97.28;;;29.23;;
48685;SDS011;34485;51.536;3.816;2023-02-15T03:31:38;280.17;;;36.28;;
48685;SDS011;34485;51.536;3.816;2023-02-15T03:34:08;248.60;;;34.03;;
48685;SDS011;34485;51.536;3.816;2023-02-15T03:41:39;335.75;;;39.47;;
48685;SDS011;34485;51.536;3.816;2023-02-15T03:44:25;274.63;;;33.60;;
48685;SDS011;34485;51.536;3.816;2023-02-15T03:47:00;283.98;;;39.78;;
48685;SDS011;34485;51.536;3.816;2023-02-15T03:52:27;288.15;;;37.90;;
48685;SDS011;34485;51.536;3.816;2023-02-15T03:54:54;165.48;;;28.88;;
48685;SDS011;34485;51.536;3.816;2023-02-15T04:00:13;176.52;;;29.98;;
48685;SDS011;34485;51.536;3.816;2023-02-15T04:05:33;96.78;;;27.13;;
48685;SDS011;34485;51.536;3.816;2023-02-15T04:07:58;112.28;;;31.45;;
48685;SDS011;34485;51.536;3.816;2023-02-15T04:10:24;80.80;;;28.83;;
48685;SDS011;34485;51.536;3.816;2023-02-15T04:13:08;99.30;;;25.80;;
48685;SDS011;34485;51.536;3.816;2023-02-15T04:15:34;53.67;;;25.37;;
48685;SDS011;34485;51.536;3.816;2023-02-15T04:18:18;46.85;;;23.88;;
48685;SDS011;34485;51.536;3.816;2023-02-15T04:20:44;43.92;;;25.08;;
48685;SDS011;34485;51.536;3.816;2023-02-15T04:23:29;52.25;;;27.60;;
48685;SDS011;34485;51.536;3.816;2023-02-15T04:26:13;49.78;;;26.95;;
48685;SDS011;34485;51.536;3.816;2023-02-15T04:28:39;51.15;;;26.60;;
48685;SDS011;34485;51.536;3.816;2023-02-15T04:31:04;55.00;;;26.23;;
48685;SDS011;34485;51.536;3.816;2023-02-15T04:33:30;53.65;;;27.20;;
48685;SDS011;34485;51.536;3.816;2023-02-15T04:35:56;51.90;;;27.07;;
48685;SDS011;34485;51.536;3.816;2023-02-15T04:38:22;43.55;;;24.77;;
48685;SDS011;34485;51.536;3.816;2023-02-15T04:40:51;44.57;;;24.40;;
48685;SDS011;34485;51.536;3.816;2023-02-15T04:43:17;37.35;;;23.55;;
48685;SDS011;34485;51.536;3.816;2023-02-15T04:45:49;43.58;;;25.58;;
48685;SDS011;34485;51.536;3.816;2023-02-15T04:48:16;40.30;;;25.42;;
48685;SDS011;34485;51.536;3.816;2023-02-15T04:50:42;42.15;;;24.67;;
48685;SDS011;34485;51.536;3.816;2023-02-15T04:53:08;41.83;;;24.23;;
48685;SDS011;34485;51.536;3.816;2023-02-15T04:55:34;43.30;;;24.77;;
48685;SDS011;34485;51.536;3.816;2023-02-15T04:58:00;62.47;;;30.08;;
48685;SDS011;34485;51.536;3.816;2023-02-15T05:00:25;53.85;;;26.85;;
48685;SDS011;34485;51.536;3.816;2023-02-15T05:02:52;53.33;;;26.77;;
48685;SDS011;34485;51.536;3.816;2023-02-15T05:05:18;56.70;;;29.07;;
48685;SDS011;34485;51.536;3.816;2023-02-15T05:07:44;56.92;;;28.45;;
48685;SDS011;34485;51.536;3.816;2023-02-15T05:10:09;50.17;;;27.20;;
48685;SDS011;34485;51.536;3.816;2023-02-15T05:12:35;54.40;;;28.17;;
48685;SDS011;34485;51.536;3.816;2023-02-15T05:15:01;59.10;;;28.23;;
48685;SDS011;34485;51.536;3.816;2023-02-15T05:17:26;63.65;;;29.60;;
48685;SDS011;34485;51.536;3.816;2023-02-15T05:19:52;50.87;;;28.30;;
48685;SDS011;34485;51.536;3.816;2023-02-15T05:22:17;49.10;;;28.33;;
48685;SDS011;34485;51.536;3.816;2023-02-15T05:24:43;59.07;;;30.10;;
48685;SDS011;34485;51.536;3.816;2023-02-15T05:27:27;59.65;;;28.38;;
48685;SDS011;34485;51.536;3.816;2023-02-15T05:30:11;54.97;;;29.75;;
48685;SDS011;34485;51.536;3.816;2023-02-15T05:32:38;83.23;;;35.20;;
48685;SDS011;34485;51.536;3.816;2023-02-15T05:35:04;99.85;;;40.67;;
48685;SDS011;34485;51.536;3.816;2023-02-15T05:37:31;97.65;;;40.08;;
48685;SDS011;34485;51.536;3.816;2023-02-15T05:39:56;103.33;;;42.13;;
48685;SDS011;34485;51.536;3.816;2023-02-15T05:42:22;105.30;;;41.55;;
48685;SDS011;34485;51.536;3.816;2023-02-15T05:44:47;105.43;;;41.90;;
48685;SDS011;34485;51.536;3.816;2023-02-15T05:47:13;107.10;;;42.37;;
48685;SDS011;34485;51.536;3.816;2023-02-15T05:49:39;113.28;;;45.42;;
48685;SDS011;34485;51.536;3.816;2023-02-15T05:52:04;119.90;;;46.67;;
48685;SDS011;34485;51.536;3.816;2023-02-15T05:54:30;128.80;;;46.47;;
48685;SDS011;34485;51.536;3.816;2023-02-15T05:56:56;109.07;;;42.70;;
48685;SDS011;34485;51.536;3.816;2023-02-15T05:59:21;104.38;;;43.58;;
48685;SDS011;34485;51.536;3.816;2023-02-15T06:01:47;108.77;;;44.93;;
48685;SDS011;34485;51.536;3.816;2023-02-15T06:04:13;124.82;;;42.25;;
48685;SDS011;34485;51.536;3.816;2023-02-15T06:06:38;130.17;;;44.67;;
48685;SDS011;34485;51.536;3.816;2023-02-15T06:09:04;107.85;;;41.58;;
48685;SDS011;34485;51.536;3.816;2023-02-15T06:11:29;108.97;;;43.57;;
48685;SDS011;34485;51.536;3.816;2023-02-15T06:13:55;105.63;;;45.93;;
48685;SDS011;34485;51.536;3.816;2023-02-15T06:16:21;140.57;;;45.45;;
48685;SDS011;34485;51.536;3.816;2023-02-15T06:18:47;125.35;;;48.05;;
48685;SDS011;34485;51.536;3.816;2023-02-15T06:21:12;143.23;;;51.35;;
48685;SDS011;34485;51.536;3.816;2023-02-15T06:23:38;151.48;;;50.63;;
48685;SDS011;34485;51.536;3.816;2023-02-15T06:26:04;136.03;;;51.47;;
48685;SDS011;34485;51.536;3.816;2023-02-15T06:28:30;148.57;;;53.08;;
48685;SDS011;34485;51.536;3.816;2023-02-15T06:30:55;148.93;;;52.67;;
48685;SDS011;34485;51.536;3.816;2023-02-15T06:33:21;156.68;;;53.55;;
48685;SDS011;34485;51.536;3.816;2023-02-15T06:35:47;159.60;;;55.57;;
48685;SDS011;34485;51.536;3.816;2023-02-15T06:38:13;148.10;;;53.00;;
48685;SDS011;34485;51.536;3.816;2023-02-15T06:40:38;142.03;;;52.30;;
48685;SDS011;34485;51.536;3.816;2023-02-15T06:43:04;159.57;;;57.00;;
48685;SDS011;34485;51.536;3.816;2023-02-15T06:45:30;167.27;;;57.07;;
48685;SDS011;34485;51.536;3.816;2023-02-15T06:47:55;187.33;;;60.80;;
48685;SDS011;34485;51.536;3.816;2023-02-15T06:50:21;164.68;;;57.72;;
48685;SDS011;34485;51.536;3.816;2023-02-15T06:52:46;173.17;;;57.93;;
48685;SDS011;34485;51.536;3.816;2023-02-15T06:55:12;162.10;;;58.50;;
48685;SDS011;34485;51.536;3.816;2023-02-15T06:57:38;174.30;;;58.53;;
48685;SDS011;34485;51.536;3.816;2023-02-15T07:00:03;185.13;;;61.47;;
48685;SDS011;34485;51.536;3.816;2023-02-15T07:02:30;176.40;;;63.22;;
48685;SDS011;34485;51.536;3.816;2023-02-15T07:04:56;176.13;;;61.47;;
48685;SDS011;34485;51.536;3.816;2023-02-15T07:07:41;183.23;;;60.83;;
48685;SDS011;34485;51.536;3.816;2023-02-15T07:10:07;179.23;;;60.87;;
48685;SDS011;34485;51.536;3.816;2023-02-15T07:12:33;194.73;;;63.72;;
48685;SDS011;34485;51.536;3.816;2023-02-15T07:15:11;170.40;;;59.22;;
48685;SDS011;34485;51.536;3.816;2023-02-15T07:17:41;187.23;;;60.50;;
48685;SDS011;34485;51.536;3.816;2023-02-15T07:20:12;184.32;;;61.42;;
48685;SDS011;34485;51.536;3.816;2023-02-15T07:22:39;183.75;;;61.92;;
48685;SDS011;34485;51.536;3.816;2023-02-15T07:25:06;189.60;;;63.80;;
48685;SDS011;34485;51.536;3.816;2023-02-15T07:27:33;173.05;;;59.58;;
48685;SDS011;34485;51.536;3.816;2023-02-15T07:29:59;164.07;;;61.63;;
48685;SDS011;34485;51.536;3.816;2023-02-15T07:32:29;184.90;;;65.95;;
48685;SDS011;34485;51.536;3.816;2023-02-15T07:34:56;178.13;;;60.50;;
48685;SDS011;34485;51.536;3.816;2023-02-15T07:37:22;197.35;;;66.90;;
48685;SDS011;34485;51.536;3.816;2023-02-15T07:39:48;173.90;;;62.67;;
48685;SDS011;34485;51.536;3.816;2023-02-15T07:42:14;198.02;;;67.55;;
48685;SDS011;34485;51.536;3.816;2023-02-15T07:44:39;195.70;;;63.87;;
48685;SDS011;34485;51.536;3.816;2023-02-15T07:47:05;193.02;;;68.05;;
48685;SDS011;34485;51.536;3.816;2023-02-15T07:49:31;189.70;;;66.37;;
48685;SDS011;34485;51.536;3.816;2023-02-15T07:51:56;197.50;;;65.35;;
48685;SDS011;34485;51.536;3.816;2023-02-15T07:54:22;194.30;;;66.30;;
48685;SDS011;34485;51.536;3.816;2023-02-15T07:56:48;184.43;;;64.23;;
48685;SDS011;34485;51.536;3.816;2023-02-15T07:59:13;185.45;;;63.83;;
48685;SDS011;34485;51.536;3.816;2023-02-15T08:01:39;176.23;;;64.87;;
48685;SDS011;34485;51.536;3.816;2023-02-15T08:04:06;168.43;;;61.38;;
48685;SDS011;34485;51.536;3.816;2023-02-15T08:06:33;161.25;;;59.22;;
48685;SDS011;34485;51.536;3.816;2023-02-15T08:09:02;150.35;;;61.83;;
48685;SDS011;34485;51.536;3.816;2023-02-15T08:11:33;158.75;;;63.28;;
48685;SDS011;34485;51.536;3.816;2023-02-15T08:14:05;152.30;;;62.97;;
48685;SDS011;34485;51.536;3.816;2023-02-15T08:16:36;123.68;;;53.10;;
48685;SDS011;34485;51.536;3.816;2023-02-15T08:19:04;113.30;;;52.13;;
48685;SDS011;34485;51.536;3.816;2023-02-15T08:21:35;104.40;;;50.80;;
48685;SDS011;34485;51.536;3.816;2023-02-15T08:24:01;92.53;;;46.37;;
48685;SDS011;34485;51.536;3.816;2023-02-15T08:26:28;97.68;;;46.75;;
48685;SDS011;34485;51.536;3.816;2023-02-15T08:28:55;86.68;;;45.47;;
48685;SDS011;34485;51.536;3.816;2023-02-15T08:31:21;70.05;;;38.80;;
48685;SDS011;34485;51.536;3.816;2023-02-15T08:33:48;76.47;;;39.58;;
48685;SDS011;34485;51.536;3.816;2023-02-15T08:36:17;68.20;;;37.53;;
48685;SDS011;34485;51.536;3.816;2023-02-15T08:38:45;74.60;;;36.42;;
48685;SDS011;34485;51.536;3.816;2023-02-15T08:43:47;67.78;;;37.97;;
48685;SDS011;34485;51.536;3.816;2023-02-15T08:46:16;63.95;;;38.47;;
48685;SDS011;34485;51.536;3.816;2023-02-15T08:48:42;64.03;;;37.60;;
48685;SDS011;34485;51.536;3.816;2023-02-15T08:51:09;76.80;;;39.10;;
48685;SDS011;34485;51.536;3.816;2023-02-15T08:53:38;73.95;;;38.63;;
48685;SDS011;34485;51.536;3.816;2023-02-15T08:56:05;68.88;;;37.25;;
48685;SDS011;34485;51.536;3.816;2023-02-15T08:58:31;65.85;;;36.15;;
48685;SDS011;34485;51.536;3.816;2023-02-15T09:00:57;72.77;;;34.87;;
48685;SDS011;34485;51.536;3.816;2023-02-15T09:03:23;60.75;;;35.33;;
48685;SDS011;34485;51.536;3.816;2023-02-15T09:05:49;62.30;;;34.60;;
48685;SDS011;34485;51.536;3.816;2023-02-15T09:08:14;58.73;;;35.13;;
48685;SDS011;34485;51.536;3.816;2023-02-15T09:10:40;54.25;;;31.33;;
48685;SDS011;34485;51.536;3.816;2023-02-15T09:13:06;55.33;;;31.90;;
48685;SDS011;34485;51.536;3.816;2023-02-15T09:15:32;58.90;;;32.83;;
48685;SDS011;34485;51.536;3.816;2023-02-15T09:17:57;54.40;;;32.93;;
48685;SDS011;34485;51.536;3.816;2023-02-15T09:20:30;59.63;;;29.83;;
48685;SDS011;34485;51.536;3.816;2023-02-15T09:22:57;64.63;;;34.90;;
48685;SDS011;34485;51.536;3.816;2023-02-15T09:25:22;56.17;;;31.67;;
48685;SDS011;34485;51.536;3.816;2023-02-15T09:27:48;53.78;;;30.63;;
48685;SDS011;34485;51.536;3.816;2023-02-15T09:30:13;56.43;;;32.47;;
48685;SDS011;34485;51.536;3.816;2023-02-15T09:32:39;55.33;;;31.88;;
48685;SDS011;34485;51.536;3.816;2023-02-15T09:35:05;55.00;;;30.27;;
48685;SDS011;34485;51.536;3.816;2023-02-15T09:37:31;63.05;;;31.15;;
48685;SDS011;34485;51.536;3.816;2023-02-15T09:39:56;60.90;;;32.60;;
48685;SDS011;34485;51.536;3.816;2023-02-15T09:45:20;53.88;;;31.65;;
48685;SDS011;34485;51.536;3.816;2023-02-15T09:56:06;56.47;;;32.38;;
48685;SDS011;34485;51.536;3.816;2023-02-15T10:15:14;50.65;;;30.95;;
48685;SDS011;34485;51.536;3.816;2023-02-15T10:31:23;54.40;;;30.50;;
48685;SDS011;34485;51.536;3.816;2023-02-15T10:44:47;51.50;;;31.65;;
48685;SDS011;34485;51.536;3.816;2023-02-15T10:47:31;54.60;;;30.13;;
48685;SDS011;34485;51.536;3.816;2023-02-15T10:50:06;50.15;;;29.58;;
48685;SDS011;34485;51.536;3.816;2023-02-15T10:52:50;52.42;;;30.55;;
48685;SDS011;34485;51.536;3.816;2023-02-15T10:55:49;48.13;;;29.45;;
48685;SDS011;34485;51.536;3.816;2023-02-15T11:01:21;51.53;;;30.00;;
48685;SDS011;34485;51.536;3.816;2023-02-15T11:06:49;55.28;;;32.13;;
48685;SDS011;34485;51.536;3.816;2023-02-15T11:09:18;48.05;;;28.77;;
48685;SDS011;34485;51.536;3.816;2023-02-15T11:11:50;52.83;;;29.55;;
48685;SDS011;34485;51.536;3.816;2023-02-15T11:17:17;54.45;;;30.67;;
48685;SDS011;34485;51.536;3.816;2023-02-15T11:22:27;46.22;;;28.13;;
48685;SDS011;34485;51.536;3.816;2023-02-15T11:24:55;50.15;;;28.60;;
48685;SDS011;34485;51.536;3.816;2023-02-15T11:27:30;50.40;;;29.73;;
48685;SDS011;34485;51.536;3.816;2023-02-15T11:30:10;50.92;;;29.83;;
48685;SDS011;34485;51.536;3.816;2023-02-15T11:40:30;51.20;;;28.17;;
48685;SDS011;34485;51.536;3.816;2023-02-15T11:43:04;48.20;;;26.65;;
48685;SDS011;34485;51.536;3.816;2023-02-15T11:45:51;53.97;;;29.10;;
48685;SDS011;34485;51.536;3.816;2023-02-15T11:48:17;53.00;;;28.73;;
48685;SDS011;34485;51.536;3.816;2023-02-15T11:50:43;54.28;;;27.67;;
48685;SDS011;34485;51.536;3.816;2023-02-15T11:55:44;49.75;;;28.40;;
48685;SDS011;34485;51.536;3.816;2023-02-15T12:01:02;49.40;;;28.25;;
48685;SDS011;34485;51.536;3.816;2023-02-15T12:03:50;50.03;;;27.42;;
48685;SDS011;34485;51.536;3.816;2023-02-15T12:06:25;51.28;;;29.48;;
48685;SDS011;34485;51.536;3.816;2023-02-15T12:11:44;48.67;;;27.23;;
48685;SDS011;34485;51.536;3.816;2023-02-15T12:17:33;55.35;;;28.48;;
48685;SDS011;34485;51.536;3.816;2023-02-15T12:22:38;52.10;;;29.30;;
48685;SDS011;34485;51.536;3.816;2023-02-15T12:25:26;48.83;;;29.17;;
48685;SDS011;34485;51.536;3.816;2023-02-15T12:28:03;49.97;;;28.13;;
48685;SDS011;34485;51.536;3.816;2023-02-15T12:30:41;52.97;;;28.08;;
48685;SDS011;34485;51.536;3.816;2023-02-15T12:33:21;48.55;;;27.73;;
48685;SDS011;34485;51.536;3.816;2023-02-15T12:36:19;46.60;;;26.20;;
48685;SDS011;34485;51.536;3.816;2023-02-15T12:41:32;49.97;;;27.97;;
48685;SDS011;34485;51.536;3.816;2023-02-15T12:49:23;52.45;;;30.45;;
48685;SDS011;34485;51.536;3.816;2023-02-15T12:51:53;50.95;;;27.35;;
48685;SDS011;34485;51.536;3.816;2023-02-15T12:56:49;51.15;;;30.08;;
48685;SDS011;34485;51.536;3.816;2023-02-15T12:59:16;48.20;;;26.30;;
48685;SDS011;34485;51.536;3.816;2023-02-15T13:01:45;50.58;;;27.70;;
48685;SDS011;34485;51.536;3.816;2023-02-15T13:04:25;49.35;;;27.08;;
48685;SDS011;34485;51.536;3.816;2023-02-15T13:06:52;50.03;;;26.80;;
48685;SDS011;34485;51.536;3.816;2023-02-15T13:11:57;47.97;;;26.77;;
48685;SDS011;34485;51.536;3.816;2023-02-15T13:14:57;49.30;;;27.90;;
48685;SDS011;34485;51.536;3.816;2023-02-15T13:17:25;47.33;;;27.85;;
48685;SDS011;34485;51.536;3.816;2023-02-15T13:20:05;48.50;;;26.27;;
48685;SDS011;34485;51.536;3.816;2023-02-15T13:22:42;52.85;;;27.55;;
48685;SDS011;34485;51.536;3.816;2023-02-15T13:25:13;54.57;;;28.57;;
48685;SDS011;34485;51.536;3.816;2023-02-15T13:27:42;46.80;;;27.33;;
48685;SDS011;34485;51.536;3.816;2023-02-15T13:30:44;58.28;;;28.02;;
48685;SDS011;34485;51.536;3.816;2023-02-15T13:33:10;49.55;;;27.25;;
48685;SDS011;34485;51.536;3.816;2023-02-15T13:36:05;50.28;;;27.05;;
48685;SDS011;34485;51.536;3.816;2023-02-15T13:41:33;47.95;;;27.27;;
48685;SDS011;34485;51.536;3.816;2023-02-15T13:44:15;48.85;;;27.98;;
48685;SDS011;34485;51.536;3.816;2023-02-15T13:47:17;49.45;;;26.48;;
48685;SDS011;34485;51.536;3.816;2023-02-15T13:49:53;47.42;;;27.55;;
48685;SDS011;34485;51.536;3.816;2023-02-15T13:52:42;47.17;;;26.53;;
48685;SDS011;34485;51.536;3.816;2023-02-15T13:55:26;46.58;;;26.05;;
48685;SDS011;34485;51.536;3.816;2023-02-15T13:58:13;59.75;;;26.58;;
48685;SDS011;34485;51.536;3.816;2023-02-15T14:01:04;42.67;;;25.63;;
48685;SDS011;34485;51.536;3.816;2023-02-15T14:03:47;43.85;;;25.77;;
48685;SDS011;34485;51.536;3.816;2023-02-15T14:12:20;51.67;;;26.73;;
48685;SDS011;34485;51.536;3.816;2023-02-15T14:26:33;48.38;;;27.60;;
48685;SDS011;34485;51.536;3.816;2023-02-15T14:32:11;47.55;;;28.15;;
48685;SDS011;34485;51.536;3.816;2023-02-15T14:34:48;49.10;;;27.37;;
48685;SDS011;34485;51.536;3.816;2023-02-15T14:37:21;44.53;;;27.50;;
48685;SDS011;34485;51.536;3.816;2023-02-15T14:46:25;52.00;;;29.05;;
48685;SDS011;34485;51.536;3.816;2023-02-15T14:48:37;49.57;;;27.00;;
48685;SDS011;34485;51.536;3.816;2023-02-15T14:51:09;46.78;;;27.77;;
48685;SDS011;34485;51.536;3.816;2023-02-15T14:53:38;46.70;;;28.30;;
48685;SDS011;34485;51.536;3.816;2023-02-15T15:01:17;45.77;;;27.43;;
48685;SDS011;34485;51.536;3.816;2023-02-15T15:04:02;51.08;;;27.88;;
48685;SDS011;34485;51.536;3.816;2023-02-15T15:06:33;48.05;;;27.38;;
48685;SDS011;34485;51.536;3.816;2023-02-15T15:14:48;43.93;;;26.53;;
48685;SDS011;34485;51.536;3.816;2023-02-15T15:20:13;44.47;;;28.67;;
48685;SDS011;34485;51.536;3.816;2023-02-15T15:32:05;53.22;;;29.00;;
48685;SDS011;34485;51.536;3.816;2023-02-15T15:43:29;46.20;;;25.53;;
48685;SDS011;34485;51.536;3.816;2023-02-15T15:46:13;49.75;;;28.38;;
48685;SDS011;34485;51.536;3.816;2023-02-15T15:48:59;55.70;;;28.67;;
48685;SDS011;34485;51.536;3.816;2023-02-15T15:51:33;47.28;;;26.88;;
48685;SDS011;34485;51.536;3.816;2023-02-15T15:54:03;56.50;;;32.90;;
48685;SDS011;34485;51.536;3.816;2023-02-15T15:56:30;60.50;;;36.50;;
48685;SDS011;34485;51.536;3.816;2023-02-15T15:59:04;50.55;;;29.92;;
48685;SDS011;34485;51.536;3.816;2023-02-15T16:01:42;58.60;;;35.15;;
48685;SDS011;34485;51.536;3.816;2023-02-15T16:04:12;80.00;;;48.00;;
48685;SDS011;34485;51.536;3.816;2023-02-15T16:06:46;77.63;;;46.97;;
48685;SDS011;34485;51.536;3.816;2023-02-15T16:09:13;66.22;;;36.67;;
48685;SDS011;34485;51.536;3.816;2023-02-15T16:11:44;62.80;;;39.97;;
48685;SDS011;34485;51.536;3.816;2023-02-15T16:14:14;83.27;;;47.70;;
48685;SDS011;34485;51.536;3.816;2023-02-15T16:16:49;69.68;;;39.40;;
48685;SDS011;34485;51.536;3.816;2023-02-15T16:19:19;56.35;;;33.50;;
48685;SDS011;34485;51.536;3.816;2023-02-15T16:21:48;57.88;;;31.70;;
48685;SDS011;34485;51.536;3.816;2023-02-15T16:29:46;52.42;;;28.83;;
48685;SDS011;34485;51.536;3.816;2023-02-15T16:40:50;51.30;;;28.58;;
48685;SDS011;34485;51.536;3.816;2023-02-15T16:43:23;53.13;;;27.58;;
48685;SDS011;34485;51.536;3.816;2023-02-15T16:45:57;56.25;;;28.65;;
48685;SDS011;34485;51.536;3.816;2023-02-15T16:48:29;49.60;;;28.27;;
48685;SDS011;34485;51.536;3.816;2023-02-15T16:50:55;48.45;;;27.42;;
48685;SDS011;34485;51.536;3.816;2023-02-15T16:53:28;56.22;;;28.50;;
48685;SDS011;34485;51.536;3.816;2023-02-15T16:55:55;51.92;;;26.95;;
48685;SDS011;34485;51.536;3.816;2023-02-15T17:01:01;53.65;;;28.60;;
48685;SDS011;34485;51.536;3.816;2023-02-15T17:03:30;47.72;;;27.88;;
48685;SDS011;34485;51.536;3.816;2023-02-15T17:05:57;50.43;;;29.23;;
48685;SDS011;34485;51.536;3.816;2023-02-15T17:08:35;51.97;;;28.38;;
48685;SDS011;34485;51.536;3.816;2023-02-15T17:11:17;53.85;;;29.58;;
48685;SDS011;34485;51.536;3.816;2023-02-15T17:14:18;49.47;;;27.17;;
48685;SDS011;34485;51.536;3.816;2023-02-15T17:16:49;53.15;;;30.08;;
48685;SDS011;34485;51.536;3.816;2023-02-15T17:19:19;49.87;;;28.53;;
48685;SDS011;34485;51.536;3.816;2023-02-15T17:21:52;59.53;;;33.53;;
48685;SDS011;34485;51.536;3.816;2023-02-15T17:24:38;55.00;;;30.38;;
48685;SDS011;34485;51.536;3.816;2023-02-15T17:27:13;56.65;;;29.98;;
48685;SDS011;34485;51.536;3.816;2023-02-15T17:29:55;78.13;;;37.33;;
48685;SDS011;34485;51.536;3.816;2023-02-15T17:32:23;64.57;;;34.30;;
48685;SDS011;34485;51.536;3.816;2023-02-15T17:35:08;57.40;;;32.15;;
48685;SDS011;34485;51.536;3.816;2023-02-15T17:37:44;62.15;;;32.33;;
48685;SDS011;34485;51.536;3.816;2023-02-15T17:40:18;55.53;;;29.27;;
48685;SDS011;34485;51.536;3.816;2023-02-15T17:42:47;55.55;;;31.50;;
48685;SDS011;34485;51.536;3.816;2023-02-15T17:45:13;56.57;;;30.20;;
48685;SDS011;34485;51.536;3.816;2023-02-15T17:47:39;69.32;;;35.25;;
48685;SDS011;34485;51.536;3.816;2023-02-15T17:50:06;57.05;;;32.15;;
48685;SDS011;34485;51.536;3.816;2023-02-15T17:52:40;64.95;;;34.97;;
48685;SDS011;34485;51.536;3.816;2023-02-15T17:55:12;63.03;;;33.67;;
48685;SDS011;34485;51.536;3.816;2023-02-15T17:57:58;50.53;;;29.52;;
48685;SDS011;34485;51.536;3.816;2023-02-15T18:00:24;54.25;;;29.60;;
48685;SDS011;34485;51.536;3.816;2023-02-15T18:03:09;51.30;;;30.23;;